Lake Wenatchee to Mission Ridge
Lake Wenatchee
Latest observation 08/31 18:00 PDT
| Time (PDT) | Temp °F 1930' | RH % 1930' | Pcp1 in 1930' | PcpSum in 1930' | 24Sno in 1930' | SnoHt in 1930' |
|---|---|---|---|---|---|---|
| 08/31 18:00 | 79 | 28 | 0.00 | 0.00 | 4.3 | 3.8 |
| 08/31 17:00 | 80 | 26 | 0.00 | 0.00 | 5.1 | 5.0 |
| 08/31 16:00 | 80 | 26 | 0.00 | 0.00 | 5.0 | 5.2 |
| 08/31 15:00 | 79 | 29 | 0.00 | 0.00 | 5.1 | 4.4 |
| 08/31 14:00 | 78 | 31 | 0.00 | 0.00 | 4.7 | 4.9 |
| 08/31 13:00 | 74 | 36 | 0.00 | 0.00 | 3.6 | 4.7 |
| 08/31 12:00 | 69 | 45 | 0.00 | 0.00 | 5.3 | 4.5 |
| 08/31 11:00 | 64 | 54 | 0.00 | 0.00 | 3.6 | 4.6 |
| 08/31 10:00 | 58 | 67 | 0.00 | 0.00 | 4.4 | 4.7 |
| 08/31 09:00 | 52 | 80 | 0.00 | 0.00 | 3.7 | 4.6 |
| 08/31 08:00 | 45 | 90 | 0.00 | 0.00 | 4.2 | 4.5 |
| 08/31 07:00 | 43 | 93 | 0.00 | 0.00 | 4.0 | 4.5 |
| 08/31 06:00 | 44 | 93 | 0.00 | 0.00 | 3.9 | 4.4 |
| 08/31 05:00 | 44 | 92 | 0.00 | 0.00 | 3.8 | 4.4 |
| 08/31 04:00 | 46 | 91 | 0.00 | 0.00 | 3.7 | 4.4 |
| 08/31 03:00 | 48 | 87 | 0.00 | 0.00 | 3.3 | 4.6 |
| 08/31 02:00 | 50 | 81 | 0.00 | 0.00 | 3.1 | 4.5 |
| 08/31 01:00 | 54 | 74 | 0.00 | 0.00 | 3.6 | 4.5 |
| 08/31 00:00 | 56 | 70 | 0.00 | 0.00 | 3.6 | 4.5 |
| 08/30 23:00 | 59 | 65 | 0.00 | 0.00 | 3.8 | 4.5 |
| 08/30 22:00 | 60 | 62 | 0.00 | 0.00 | 3.3 | 4.6 |
| 08/30 21:00 | 61 | 59 | 0.00 | 0.00 | 4.6 | 4.6 |
| 08/30 20:00 | 62 | 57 | 0.00 | 0.00 | 4.3 | 4.5 |
| 08/30 19:00 | 64 | 53 | 0.00 | 0.00 | 4.7 | 4.5 |
| 08/30 18:00 | 66 | 49 | 0.00 | 0.00 | 4.7 | 4.3 |
| 08/30 17:00 | 69 | 44 | 0.00 | 0.00 | 4.4 | 4.6 |
| 08/30 16:00 | 70 | 42 | 0.00 | 0.00 | 1.9 | 4.7 |
| 08/30 15:00 | 69 | 42 | 0.00 | 0.00 | 4.0 | 4.7 |
| 08/30 14:00 | 69 | 41 | 0.00 | 0.00 | 3.8 | 4.6 |
| 08/30 13:00 | 70 | 39 | 0.00 | 0.00 | 3.7 | 4.6 |
| 08/30 12:00 | 65 | 44 | 0.00 | 0.00 | 4.6 | 5.0 |
| 08/30 11:00 | 64 | 46 | 0.00 | 0.00 | 5.3 | 4.7 |
| 08/30 10:00 | 62 | 48 | 0.00 | 0.00 | 5.4 | 4.7 |
| 08/30 09:00 | 52 | 69 | 0.00 | 0.00 | 3.7 | 4.6 |
| 08/30 08:00 | 42 | 88 | 0.00 | 0.00 | 2.9 | 4.8 |
| 08/30 07:00 | 40 | 91 | 0.00 | 0.00 | 1.7 | 4.6 |
| 08/30 06:00 | 41 | 88 | 0.00 | 0.00 | 1.6 | 4.6 |
| 08/30 05:00 | 41 | 89 | 0.00 | 0.00 | 1.6 | 4.7 |
| 08/30 04:00 | 42 | 86 | 0.00 | 0.00 | 1.8 | 4.6 |
| 08/30 03:00 | 43 | 85 | 0.00 | 0.00 | 1.9 | 4.7 |
| 08/30 02:00 | 45 | 81 | 0.00 | 0.00 | 1.7 | 4.5 |
| 08/30 01:00 | 48 | 76 | 0.00 | 0.00 | 1.6 | 4.5 |
| 08/30 00:00 | 53 | 66 | 0.00 | 0.00 | 1.6 | 4.4 |
| 08/29 23:00 | 55 | 63 | 0.00 | 0.00 | 1.5 | 4.4 |
| 08/29 22:00 | 56 | 64 | 0.00 | 0.00 | 1.5 | 4.4 |
| 08/29 21:00 | 56 | 62 | 0.00 | 0.00 | 2.0 | 4.3 |
| 08/29 20:00 | 57 | 59 | 0.00 | 0.00 | 2.3 | 4.2 |
| 08/29 19:00 | 60 | 51 | 0.00 | 0.00 | 2.4 | 4.5 |
| 08/29 18:00 | 62 | 46 | 0.00 | 0.00 | 3.3 | 4.7 |
| 08/29 17:00 | 62 | 46 | 0.00 | 0.00 | 4.2 | 4.5 |
| 08/29 16:00 | 63 | 47 | 0.00 | 0.00 | 3.7 | 4.6 |
| 08/29 15:00 | 63 | 50 | 0.00 | 0.00 | 3.9 | 4.6 |
| 08/29 14:00 | 62 | 52 | 0.00 | 0.00 | 4.2 | 4.6 |
| 08/29 13:00 | 63 | 47 | 0.00 | 0.00 | 5.4 | 4.5 |
| 08/29 12:00 | 63 | 48 | 0.00 | 0.00 | 5.1 | 4.5 |
| 08/29 11:00 | 62 | 49 | 0.00 | 0.00 | 5.3 | 4.4 |
| 08/29 10:00 | 62 | 50 | 0.00 | 0.00 | 4.8 | 4.3 |
| 08/29 09:00 | 59 | 59 | 0.00 | 0.00 | 4.3 | 3.8 |
| 08/29 08:00 | 58 | 62 | 0.00 | 0.00 | 4.6 | 4.5 |
| 08/29 07:00 | 58 | 62 | 0.00 | 0.00 | 3.7 | 4.4 |
| 08/29 06:00 | 59 | 59 | 0.00 | 0.00 | 4.2 | 4.2 |
| 08/29 05:00 | 59 | 58 | 0.00 | 0.00 | 4.4 | 4.3 |
| 08/29 04:00 | 60 | 59 | 0.00 | 0.00 | 4.6 | 4.0 |
| 08/29 03:00 | 61 | 59 | 0.00 | 0.00 | 5.3 | 4.5 |
| 08/29 02:00 | 61 | 60 | 0.00 | 0.00 | 5.4 | 4.4 |
| 08/29 01:00 | 61 | 60 | 0.00 | 0.00 | 4.8 | 4.4 |
| 08/29 00:00 | 61 | 61 | 0.00 | 0.00 | 5.5 | 4.4 |
| 08/28 23:00 | 62 | 59 | 0.00 | 0.00 | 5.5 | 4.5 |
| 08/28 22:00 | 62 | 58 | 0.00 | 0.00 | 5.5 | 4.3 |
| 08/28 21:00 | 65 | 53 | 0.00 | 0.00 | 4.6 | 4.2 |
| 08/28 20:00 | 67 | 49 | 0.00 | 0.00 | 4.5 | 4.3 |
| 08/28 19:00 | 70 | 39 | 0.00 | 0.00 | 4.8 | 4.4 |
| 08/28 18:00 | 73 | 34 | 0.00 | 0.00 | 5.2 | 4.6 |
| 08/28 17:00 | 74 | 32 | 0.00 | 0.00 | 5.4 | 4.4 |
| 08/28 16:00 | 76 | 30 | 0.00 | 0.00 | 4.1 | 4.7 |
| 08/28 15:00 | 76 | 30 | 0.00 | 0.00 | 4.1 | 4.7 |
| 08/28 14:00 | 76 | 31 | 0.00 | 0.00 | 3.6 | 4.7 |
| 08/28 13:00 | 76 | 33 | 0.00 | 0.00 | 5.3 | 5.1 |
| 08/28 12:00 | 73 | 37 | 0.00 | 0.00 | 5.0 | 4.8 |
| 08/28 11:00 | 71 | 43 | 0.00 | 0.00 | 5.4 | 4.5 |
| 08/28 10:00 | 67 | 49 | 0.00 | 0.00 | 5.3 | 4.5 |
| 08/28 09:00 | 62 | 61 | 0.00 | 0.00 | 5.6 | 4.5 |
| 08/28 08:00 | 58 | 70 | 0.00 | 0.00 | 5.5 | 4.4 |
| 08/28 07:00 | 52 | 82 | 0.00 | 0.00 | 5.6 | 4.4 |
| 08/28 06:00 | 52 | 81 | 0.00 | 0.00 | 5.3 | 4.3 |
| 08/28 05:00 | 54 | 76 | 0.00 | 0.00 | 5.3 | 4.3 |
| 08/28 04:00 | 54 | 75 | 0.00 | 0.00 | 5.2 | 4.3 |
| 08/28 03:00 | 56 | 71 | 0.00 | 0.00 | 5.2 | 4.4 |
| 08/28 02:00 | 61 | 63 | 0.00 | 0.00 | 5.1 | 4.5 |
| 08/28 01:00 | 61 | 62 | 0.00 | 0.00 | 4.4 | 4.3 |
| 08/28 00:00 | 61 | 62 | 0.00 | 0.00 | 4.4 | 4.4 |
| 08/27 23:00 | 63 | 59 | 0.00 | 0.00 | 4.3 | 4.5 |
| 08/27 22:00 | 62 | 61 | 0.00 | 0.00 | 4.3 | 4.5 |
| 08/27 21:00 | 64 | 57 | 0.00 | 0.00 | 4.3 | 4.5 |
| 08/27 20:00 | 65 | 53 | 0.00 | 0.00 | 4.6 | 4.4 |
| 08/27 19:00 | 67 | 49 | 0.00 | 0.00 | 5.3 | 4.5 |
| 08/27 18:00 | 69 | 42 | 0.00 | 0.00 | 5.3 | 4.4 |
| 08/27 17:00 | 69 | 43 | 0.00 | 0.00 | 5.4 | 4.5 |
| 08/27 16:00 | 71 | 44 | 0.00 | 0.00 | 5.3 | 4.6 |
| 08/27 15:00 | 74 | 35 | 0.00 | 0.00 | 5.2 | 4.9 |
| 08/27 14:00 | 74 | 33 | 0.00 | 0.00 | 4.5 | 4.9 |
| 08/27 13:00 | 75 | 32 | 0.00 | 0.00 | 5.2 | 5.2 |
| 08/27 12:00 | 74 | 30 | 0.00 | 0.00 | 5.3 | 5.1 |
| 08/27 11:00 | 71 | 36 | 0.00 | 0.00 | 5.3 | 4.8 |
| 08/27 10:00 | 70 | 41 | 0.00 | 0.00 | 5.4 | 4.8 |
| 08/27 09:00 | 66 | 54 | 0.00 | 0.00 | 2.0 | 5.3 |
| 08/27 08:00 | 56 | 77 | 0.00 | 0.00 | 5.5 | 4.7 |
| 08/27 07:00 | 52 | 81 | 0.00 | 0.00 | 5.5 | 4.6 |
| 08/27 06:00 | 54 | 79 | 0.00 | 0.00 | 5.5 | 4.5 |
| 08/27 05:00 | 55 | 77 | 0.00 | 0.00 | 5.4 | 4.5 |
| 08/27 04:00 | 57 | 73 | 0.00 | 0.00 | 5.4 | 4.5 |
| 08/27 03:00 | 60 | 65 | 0.00 | 0.00 | 5.3 | 4.6 |
| 08/27 02:00 | 63 | 58 | 0.00 | 0.00 | 5.1 | 4.5 |
| 08/27 01:00 | 66 | 52 | 0.00 | 0.00 | 4.5 | 4.5 |
| 08/27 00:00 | 67 | 49 | 0.00 | 0.00 | 4.2 | 4.6 |
| 08/26 23:00 | 70 | 43 | 0.00 | 0.00 | 4.2 | 4.7 |
| 08/26 22:00 | 71 | 40 | 0.00 | 0.00 | 4.8 | 4.8 |
| 08/26 21:00 | 72 | 37 | 0.00 | 0.00 | 4.8 | 4.7 |
| 08/26 20:00 | 75 | 32 | 0.00 | 0.00 | 5.3 | 4.9 |
| 08/26 19:00 | 77 | 27 | 0.00 | 0.00 | 5.1 | 4.9 |
| 08/26 18:00 | 80 | 25 | 0.00 | 0.00 | 5.1 | 5.2 |
| 08/26 17:00 | 82 | 26 | 0.00 | 0.00 | 4.8 | 4.9 |
| 08/26 16:00 | 84 | 26 | 0.00 | 0.00 | 4.8 | 4.8 |
| 08/26 15:00 | 85 | 28 | 0.00 | 0.00 | 2.6 | 5.0 |
| 08/26 14:00 | 89 | 25 | 0.00 | 0.00 | 3.9 | 4.4 |
| 08/26 13:00 | 85 | 29 | 0.00 | 0.00 | 3.7 | 4.7 |
| 08/26 12:00 | 81 | 32 | 0.00 | 0.00 | 3.9 | 4.7 |
| 08/26 11:00 | 75 | 44 | 0.00 | 0.00 | 3.2 | 4.5 |
| 08/26 10:00 | 69 | 58 | 0.00 | 0.00 | 1.5 | 4.7 |
| 08/26 09:00 | 62 | 71 | 0.00 | 0.00 | 3.5 | 3.4 |
| 08/26 08:00 | 55 | 84 | 0.00 | 0.00 | 3.6 | 2.8 |
| 08/26 07:00 | 53 | 86 | 0.00 | 0.00 | 3.8 | 2.4 |
| 08/26 06:00 | 54 | 83 | 0.00 | 0.00 | 3.9 | 3.0 |
| 08/26 05:00 | 56 | 80 | 0.00 | 0.00 | 3.8 | 3.3 |
| 08/26 04:00 | 58 | 75 | 0.00 | 0.00 | 3.8 | 3.6 |
| 08/26 03:00 | 60 | 70 | 0.00 | 0.00 | 3.8 | 3.8 |
| 08/26 02:00 | 63 | 63 | 0.00 | 0.00 | 3.7 | 3.8 |
| 08/26 01:00 | 67 | 55 | 0.00 | 0.00 | 3.1 | 3.9 |
| 08/26 00:00 | 72 | 46 | 0.00 | 0.00 | 2.1 | 3.9 |
| 08/25 23:00 | 73 | 46 | 0.00 | 0.00 | 1.4 | 3.6 |
| 08/25 22:00 | 77 | 40 | 0.00 | 0.00 | 1.7 | 4.1 |
| 08/25 21:00 | 79 | 40 | 0.00 | 0.00 | 3.4 | 3.3 |
| 08/25 20:00 | 82 | 35 | 0.00 | 0.00 | 3.6 | 3.4 |
| 08/25 19:00 | 85 | 23 | 0.00 | 0.00 | 3.6 | 4.0 |
| 08/25 18:00 | 90 | 17 | 0.00 | 0.00 | 3.8 | 4.3 |
| 08/25 17:00 | 91 | 17 | 0.00 | 0.00 | 3.8 | 4.6 |
| 08/25 16:00 | 91 | 18 | 0.00 | 0.00 | 3.8 | 4.7 |
| 08/25 15:00 | 90 | 20 | 0.00 | 0.00 | 4.0 | 5.0 |
| 08/25 14:00 | 88 | 22 | 0.00 | 0.00 | 4.2 | 4.9 |
| 08/25 13:00 | 86 | 26 | 0.00 | 0.00 | 4.0 | 4.4 |
| 08/25 12:00 | 77 | 41 | 0.00 | 0.00 | 4.0 | 4.7 |
| 08/25 11:00 | 72 | 48 | 0.00 | 0.00 | 1.7 | 4.6 |
| 08/25 10:00 | 65 | 63 | 0.00 | 0.00 | 1.5 | 4.8 |
| 08/25 09:00 | 59 | 76 | 0.00 | 0.00 | 2.6 | 4.5 |
| 08/25 08:00 | 52 | 85 | 0.00 | 0.00 | 1.1 | 4.7 |
| 08/25 07:00 | 48 | 92 | 0.00 | 0.00 | 1.3 | 4.7 |
| 08/25 06:00 | 49 | 92 | 0.00 | 0.00 | 1.1 | 4.8 |
| 08/25 05:00 | 50 | 90 | 0.00 | 0.00 | 1.1 | 4.6 |
| 08/25 04:00 | 51 | 87 | 0.00 | 0.00 | 1.1 | 4.6 |
| 08/25 03:00 | 53 | 85 | 0.00 | 0.00 | 1.3 | 4.6 |
| 08/25 02:00 | 54 | 82 | 0.00 | 0.00 | 1.4 | 4.6 |
| 08/25 01:00 | 56 | 78 | 0.00 | 0.00 | 1.2 | 4.5 |
| 08/25 00:00 | 59 | 73 | 0.00 | 0.00 | 1.1 | 4.5 |
| 08/24 23:00 | 62 | 66 | 0.00 | 0.00 | 1.3 | 4.5 |
| 08/24 22:00 | 66 | 61 | 0.00 | 0.00 | 1.4 | 4.3 |
| 08/24 21:00 | 69 | 52 | 0.00 | 0.00 | 4.4 | 4.3 |
| 08/24 20:00 | 75 | 43 | 0.00 | 0.00 | 4.4 | 4.1 |
| 08/24 19:00 | 82 | 28 | 0.00 | 0.00 | 4.1 | 3.9 |

